Time;durP1;ratioP1;P1;durP2;ratioP2;P2;SDS_P1;SDS_P2;PMS_P1;PMS_P2;Temp;Humidity;BMP_temperature;BMP_pressure;BME280_temperature;BME280_humidity;BME280_pressure;Samples;Min_cycle;Max_cycle;Signal;HPM_P1;HPM_P2
2021/12/25 00:01:00;;;;;;;2.13;2.00;;;23.60;40.30;;;;;;5017115;28;20060;-59
2021/12/25 00:03:26;;;;;;;2.30;2.10;;;23.60;40.30;;;;;;5022227;28;20128;-59
2021/12/25 00:05:52;;;;;;;4.00;2.10;;;23.60;40.20;;;;;;5016076;28;20044;-60
2021/12/25 00:08:20;;;;;;;2.53;2.15;;;23.50;40.20;;;;;;5018117;28;20215;-59
2021/12/25 00:10:46;;;;;;;2.13;1.92;;;23.50;39.90;;;;;;5019672;28;20045;-60
2021/12/25 00:13:11;;;;;;;2.88;2.17;;;23.50;39.90;;;;;;5018994;28;20046;-60
2021/12/25 00:15:38;;;;;;;3.28;1.98;;;23.40;39.90;;;;;;5016699;28;20111;-59
2021/12/25 00:18:04;;;;;;;3.28;2.13;;;23.40;39.70;;;;;;5018866;28;21489;-60
2021/12/25 00:20:29;;;;;;;3.65;2.33;;;23.40;39.70;;;;;;5018438;28;25724;-59
2021/12/25 00:22:56;;;;;;;4.13;2.20;;;23.40;39.70;;;;;;5018013;28;20405;-59
2021/12/25 00:25:22;;;;;;;3.17;1.92;;;23.30;39.50;;;;;;5017787;28;20044;-59
2021/12/25 00:27:57;;;;;;;3.65;2.30;;;23.20;39.40;;;;;;5017502;28;20429;-59
2021/12/25 00:30:34;;;;;;;2.45;2.10;;;23.20;39.30;;;;;;5017031;28;20098;-60
2021/12/25 00:33:04;;;;;;;2.65;1.90;;;23.20;39.30;;;;;;5018963;28;20138;-59
2021/12/25 00:35:30;;;;;;;6.47;2.10;;;23.10;39.30;;;;;;5013934;28;20918;-59
2021/12/25 00:37:56;;;;;;;2.67;1.90;;;23.10;39.10;;;;;;5012868;28;20049;-59
2021/12/25 00:40:22;;;;;;;3.53;2.05;;;23.10;39.00;;;;;;5015124;28;20033;-59
2021/12/25 00:42:48;;;;;;;2.22;1.65;;;23.00;38.90;;;;;;5010647;28;20041;-59
2021/12/25 00:45:14;;;;;;;2.35;1.70;;;23.00;39.20;;;;;;5016078;28;20041;-59
2021/12/25 00:47:40;;;;;;;2.17;1.60;;;23.00;39.10;;;;;;5013053;28;25467;-58
2021/12/25 00:50:06;;;;;;;2.83;1.75;;;22.90;39.00;;;;;;5030012;28;20038;-60
2021/12/25 00:52:32;;;;;;;2.83;1.63;;;22.90;39.00;;;;;;5013072;28;20484;-58
2021/12/25 00:54:58;;;;;;;2.00;1.75;;;22.90;38.70;;;;;;5028509;28;20046;-59
2021/12/25 00:57:24;;;;;;;3.10;1.70;;;22.90;38.70;;;;;;5014049;28;20045;-59
2021/12/25 00:59:49;;;;;;;3.75;1.80;;;22.80;38.70;;;;;;5018208;28;20040;-60
2021/12/25 01:02:15;;;;;;;2.05;1.75;;;22.80;38.70;;;;;;5016479;28;20041;-59
2021/12/25 01:04:40;;;;;;;2.60;1.77;;;22.70;38.50;;;;;;5017844;28;20073;-59
2021/12/25 01:07:06;;;;;;;2.97;1.60;;;22.70;38.40;;;;;;5018942;28;20493;-59
2021/12/25 01:09:31;;;;;;;1.40;1.30;;;22.70;38.40;;;;;;5016271;28;20492;-59
2021/12/25 01:11:58;;;;;;;2.28;1.63;;;22.70;38.30;;;;;;5016840;28;20128;-59
2021/12/25 01:19:52;;;;;;;1.95;1.40;;;22.60;38.10;;;;;;5017358;28;20128;-58
2021/12/25 01:30:47;;;;;;;2.05;1.50;;;22.50;38.10;;;;;;5016610;28;23736;-59
2021/12/25 01:33:44;;;;;;;2.65;1.35;;;22.40;38.00;;;;;;5014925;28;20038;-59
2021/12/25 01:41:41;;;;;;;1.85;1.02;;;22.40;37.90;;;;;;5016584;28;20041;-59
2021/12/25 01:49:37;;;;;;;2.55;1.30;;;22.30;37.70;;;;;;5016406;28;20115;-60
2021/12/25 01:52:05;;;;;;;1.15;1.05;;;22.20;37.70;;;;;;5015668;28;20046;-58
2021/12/25 01:54:31;;;;;;;2.08;1.10;;;22.20;37.70;;;;;;5018018;28;20041;-58
2021/12/25 01:56:56;;;;;;;1.58;0.90;;;22.20;37.90;;;;;;5017785;28;20053;-58
2021/12/25 01:59:22;;;;;;;1.50;1.20;;;22.20;37.70;;;;;;5013473;28;27275;-59
2021/12/25 02:01:48;;;;;;;1.38;0.90;;;22.20;37.80;;;;;;5018082;28;20038;-59
2021/12/25 02:04:13;;;;;;;1.60;0.82;;;22.10;37.60;;;;;;5017221;28;20558;-59
2021/12/25 02:06:39;;;;;;;1.83;1.20;;;22.10;37.60;;;;;;5016827;28;20041;-58
2021/12/25 02:09:05;;;;;;;1.75;0.95;;;22.10;37.60;;;;;;5018083;28;20041;-60
2021/12/25 02:11:31;;;;;;;1.92;0.90;;;22.10;37.50;;;;;;5014063;28;20081;-59
2021/12/25 02:13:58;;;;;;;1.77;0.90;;;22.10;37.50;;;;;;5014400;28;20083;-59
2021/12/25 02:16:37;;;;;;;1.13;0.80;;;22.10;37.60;;;;;;5016600;28;20041;-58
2021/12/25 02:19:11;;;;;;;1.10;0.80;;;22.10;37.50;;;;;;5016716;28;20049;-60
2021/12/25 02:21:38;;;;;;;1.40;0.70;;;22.00;37.40;;;;;;5016983;28;20725;-60
2021/12/25 02:24:12;;;;;;;1.92;0.98;;;22.00;37.50;;;;;;5019808;28;21343;-59
2021/12/25 02:26:39;;;;;;;1.13;0.70;;;22.00;37.30;;;;;;5017120;28;27283;-60
2021/12/25 02:29:06;;;;;;;2.50;0.80;;;22.00;37.40;;;;;;5018388;28;20453;-60
2021/12/25 02:31:32;;;;;;;3.28;1.00;;;21.90;37.40;;;;;;5016793;28;20065;-58
2021/12/25 02:33:57;;;;;;;1.05;0.85;;;21.90;37.30;;;;;;5016764;28;20037;-59
2021/12/25 02:36:23;;;;;;;1.67;0.85;;;21.90;37.10;;;;;;5014627;28;20049;-58
2021/12/25 02:38:50;;;;;;;3.92;0.90;;;21.90;37.20;;;;;;5019193;28;20390;-59
2021/12/25 02:41:17;;;;;;;4.20;0.85;;;21.80;37.10;;;;;;5015915;28;20207;-58
2021/12/25 02:43:45;;;;;;;1.77;0.90;;;21.80;37.20;;;;;;5017421;28;20041;-58
2021/12/25 02:46:11;;;;;;;1.25;0.80;;;21.80;37.10;;;;;;5016374;28;20036;-59
2021/12/25 02:48:37;;;;;;;1.65;1.00;;;21.80;37.10;;;;;;5017423;28;20065;-59
2021/12/25 02:51:05;;;;;;;1.90;0.80;;;21.80;37.20;;;;;;5016322;28;20072;-59
2021/12/25 02:53:30;;;;;;;1.48;0.80;;;21.80;37.10;;;;;;5017699;28;20046;-58
2021/12/25 02:55:56;;;;;;;1.75;0.80;;;21.70;37.00;;;;;;5013245;28;27322;-59
2021/12/25 02:58:22;;;;;;;3.03;0.90;;;21.70;37.00;;;;;;5014695;28;20046;-58
2021/12/25 03:00:52;;;;;;;1.42;0.90;;;21.70;37.00;;;;;;5009942;28;20708;-59
2021/12/25 03:03:18;;;;;;;1.53;0.70;;;21.70;37.00;;;;;;5010877;28;20389;-59
2021/12/25 03:05:44;;;;;;;1.35;0.82;;;21.70;37.00;;;;;;5013917;28;20042;-58
2021/12/25 03:08:12;;;;;;;1.70;0.80;;;21.70;37.00;;;;;;5014842;28;28337;-60
2021/12/25 03:10:39;;;;;;;1.00;0.88;;;21.60;36.90;;;;;;5015491;28;20056;-59
2021/12/25 03:15:47;;;;;;;2.33;0.80;;;21.60;36.90;;;;;;5014934;28;20057;-59
2021/12/25 03:18:13;;;;;;;7.55;1.35;;;21.60;36.90;;;;;;5016428;28;20049;-60
2021/12/25 03:20:44;;;;;;;8.63;1.55;;;21.60;36.90;;;;;;5011972;28;20136;-59
2021/12/25 03:23:15;;;;;;;6.75;0.90;;;21.60;37.00;;;;;;5013364;28;26299;-59
2021/12/25 03:25:43;;;;;;;2.05;1.00;;;21.60;37.00;;;;;;5017308;28;20092;-59
2021/12/25 03:28:09;;;;;;;4.07;0.98;;;21.50;36.90;;;;;;5014895;28;20064;-59
2021/12/25 03:30:38;;;;;;;4.95;1.00;;;21.50;36.90;;;;;;5016302;28;20046;-59
2021/12/25 03:33:09;;;;;;;7.93;1.33;;;21.50;36.80;;;;;;5015091;28;20407;-59
2021/12/25 03:35:35;;;;;;;8.10;1.10;;;21.50;36.80;;;;;;5014532;28;20041;-59
2021/12/25 03:38:06;;;;;;;15.73;1.20;;;21.50;36.80;;;;;;5011961;28;20554;-59
2021/12/25 03:40:32;;;;;;;8.07;1.00;;;21.50;36.80;;;;;;5014286;28;20037;-59
2021/12/25 03:42:58;;;;;;;7.25;1.40;;;21.50;36.90;;;;;;5015840;28;20049;-60
2021/12/25 03:45:27;;;;;;;4.18;1.00;;;21.50;36.90;;;;;;5015422;28;20037;-59
2021/12/25 03:48:03;;;;;;;2.05;0.90;;;21.40;36.90;;;;;;5013950;28;20127;-60
2021/12/25 03:58:32;;;;;;;4.28;0.85;;;21.40;36.70;;;;;;5014579;28;20493;-58
2021/12/25 04:01:09;;;;;;;3.75;0.90;;;21.30;36.70;;;;;;5016230;28;20129;-59
2021/12/25 04:03:48;;;;;;;2.58;0.80;;;21.30;36.60;;;;;;5020355;28;20107;-59
2021/12/25 04:06:14;;;;;;;1.98;0.80;;;21.30;36.70;;;;;;5015649;28;20461;-58
2021/12/25 04:08:45;;;;;;;6.57;1.00;;;21.30;36.60;;;;;;5018056;28;20128;-58
2021/12/25 04:11:25;;;;;;;2.15;0.70;;;21.30;36.50;;;;;;5013229;28;20037;-60
2021/12/25 04:13:51;;;;;;;3.15;0.70;;;21.30;36.40;;;;;;5016782;28;20045;-59
2021/12/25 04:16:16;;;;;;;2.60;0.80;;;21.20;36.50;;;;;;5012230;28;20155;-59
2021/12/25 04:18:42;;;;;;;3.83;0.80;;;21.20;37.20;;;;;;5010553;28;24063;-59
2021/12/25 04:21:07;;;;;;;3.05;1.10;;;21.20;36.40;;;;;;5014537;28;20465;-59
2021/12/25 04:23:37;;;;;;;8.40;1.30;;;21.20;36.40;;;;;;5012984;28;20060;-59
2021/12/25 04:26:02;;;;;;;5.20;1.20;;;21.20;36.40;;;;;;5017096;28;21548;-59
2021/12/25 04:28:37;;;;;;;5.93;1.02;;;21.20;36.40;;;;;;5012933;28;20045;-59
2021/12/25 05:01:37;;;;;;;4.70;0.70;;;21.10;36.30;;;;;;5009378;28;20048;-59
2021/12/25 05:01:44;;;;;;;8.27;1.10;;;21.00;36.20;;;;;;5014323;28;20068;-59
2021/12/25 05:04:14;;;;;;;1.67;0.90;;;21.00;35.90;;;;;;5011008;28;20061;-59
2021/12/25 05:06:40;;;;;;;1.60;0.60;;;20.90;35.80;;;;;;5011794;28;20458;-59
2021/12/25 05:09:06;;;;;;;2.33;0.70;;;20.90;35.80;;;;;;5014277;28;20126;-59
2021/12/25 05:11:32;;;;;;;0.65;0.35;;;20.90;35.70;;;;;;5014993;28;20042;-58
2021/12/25 05:13:57;;;;;;;2.35;0.63;;;20.90;35.80;;;;;;5014814;28;20060;-59
2021/12/25 05:16:23;;;;;;;2.80;0.63;;;20.90;35.60;;;;;;5015345;28;20041;-61
2021/12/25 05:18:50;;;;;;;3.63;0.70;;;20.90;35.60;;;;;;5016162;28;20041;-61
2021/12/25 05:21:18;;;;;;;3.35;0.70;;;20.90;35.60;;;;;;5010941;28;20766;-60
2021/12/25 05:23:44;;;;;;;1.25;0.38;;;20.90;35.60;;;;;;5014989;28;20108;-59
2021/12/25 05:26:09;;;;;;;2.05;0.50;;;20.90;35.70;;;;;;5014881;28;20481;-60
2021/12/25 05:28:45;;;;;;;2.85;0.77;;;20.90;35.60;;;;;;5012397;28;20041;-61
2021/12/25 05:31:13;;;;;;;1.00;0.43;;;20.90;35.60;;;;;;5015081;28;20133;-59
2021/12/25 05:33:39;;;;;;;1.33;0.40;;;20.90;35.50;;;;;;5014756;28;20136;-60
2021/12/25 05:36:07;;;;;;;1.48;0.63;;;20.90;35.50;;;;;;5012257;28;20046;-59
2021/12/25 05:38:34;;;;;;;1.23;0.60;;;20.80;35.50;;;;;;5011723;28;20180;-59
2021/12/25 05:41:01;;;;;;;0.95;0.50;;;20.80;35.50;;;;;;5015324;28;20038;-59
2021/12/25 05:43:27;;;;;;;1.20;0.50;;;20.80;35.50;;;;;;5007693;28;25433;-60
2021/12/25 05:45:52;;;;;;;0.95;0.40;;;20.80;35.70;;;;;;5016728;28;20415;-59
2021/12/25 05:48:19;;;;;;;1.80;0.65;;;20.80;35.60;;;;;;5017255;28;20045;-61
2021/12/25 05:50:45;;;;;;;2.30;0.68;;;20.80;35.50;;;;;;5017090;28;20500;-61
2021/12/25 05:53:10;;;;;;;0.68;0.30;;;20.80;36.30;;;;;;5017630;28;20086;-60
2021/12/25 05:55:36;;;;;;;0.80;0.40;;;20.80;35.60;;;;;;5017560;28;20427;-59
2021/12/25 05:58:03;;;;;;;2.67;0.63;;;20.80;35.70;;;;;;5013835;28;25934;-60
2021/12/25 06:00:30;;;;;;;0.90;0.32;;;20.80;35.70;;;;;;5015288;28;20049;-62
2021/12/25 06:02:56;;;;;;;0.20;0.20;;;20.80;35.80;;;;;;5013618;28;20072;-60
2021/12/25 06:05:23;;;;;;;0.88;0.40;;;20.80;35.80;;;;;;5019408;28;20560;-59
2021/12/25 06:07:48;;;;;;;0.95;0.50;;;20.80;35.70;;;;;;5016525;28;20159;-60
2021/12/25 06:10:14;;;;;;;2.05;0.50;;;20.80;35.60;;;;;;5018409;28;20048;-59
2021/12/25 06:12:42;;;;;;;1.40;0.40;;;20.80;35.70;;;;;;5013110;28;26292;-60
2021/12/25 06:15:10;;;;;;;1.33;0.35;;;20.80;35.70;;;;;;5014713;28;20544;-59
2021/12/25 06:17:36;;;;;;;1.58;0.55;;;20.80;35.70;;;;;;5016098;28;20509;-60
2021/12/25 06:20:03;;;;;;;1.10;0.47;;;20.80;35.70;;;;;;5016459;28;20587;-59
2021/12/25 06:22:29;;;;;;;2.17;0.43;;;20.70;35.70;;;;;;5017349;28;20080;-59
2021/12/25 06:24:54;;;;;;;0.28;0.25;;;20.70;35.60;;;;;;5012820;28;20504;-59
2021/12/25 06:27:21;;;;;;;0.80;0.38;;;20.70;35.60;;;;;;5018785;28;20045;-59
2021/12/25 06:29:48;;;;;;;1.08;0.40;;;20.70;35.60;;;;;;5016663;28;20123;-59
2021/12/25 06:32:14;;;;;;;1.33;0.43;;;20.70;35.50;;;;;;5017026;28;23187;-59
2021/12/25 06:34:40;;;;;;;1.00;0.50;;;20.70;35.60;;;;;;5015307;28;20125;-59
2021/12/25 06:37:06;;;;;;;0.85;0.40;;;20.70;35.50;;;;;;5016601;28;20505;-59
2021/12/25 06:39:31;;;;;;;0.40;0.40;;;20.70;35.40;;;;;;5011002;28;20037;-59
2021/12/25 06:41:58;;;;;;;0.38;0.20;;;20.70;35.30;;;;;;5018439;28;20517;-61
2021/12/25 06:44:25;;;;;;;1.45;0.40;;;20.70;35.40;;;;;;5017624;28;20045;-61
2021/12/25 06:46:51;;;;;;;1.50;0.35;;;20.70;35.40;;;;;;5015856;28;20160;-59
2021/12/25 06:49:18;;;;;;;0.82;0.38;;;20.70;35.50;;;;;;5016055;28;20497;-59
2021/12/25 06:51:44;;;;;;;0.45;0.30;;;20.80;35.40;;;;;;5018887;28;20100;-59
2021/12/25 06:54:09;;;;;;;0.47;0.47;;;20.80;35.30;;;;;;5014410;28;20041;-59
2021/12/25 06:56:35;;;;;;;1.20;0.30;;;20.80;35.30;;;;;;5014319;28;20132;-61
2021/12/25 06:59:01;;;;;;;0.70;0.40;;;20.80;35.10;;;;;;5019037;28;20064;-59
2021/12/25 07:01:26;;;;;;;0.40;0.30;;;20.80;35.20;;;;;;5015804;28;20405;-59
2021/12/25 07:03:52;;;;;;;0.50;0.30;;;20.80;35.00;;;;;;5018926;28;20500;-60
2021/12/25 07:06:17;;;;;;;1.00;0.70;;;20.80;35.00;;;;;;5014279;28;20029;-60
2021/12/25 07:08:43;;;;;;;0.70;0.35;;;20.80;34.90;;;;;;5013898;28;26101;-59
2021/12/25 07:11:09;;;;;;;0.22;0.20;;;20.80;35.10;;;;;;5015136;28;20524;-60
2021/12/25 07:13:34;;;;;;;0.25;0.20;;;20.80;34.80;;;;;;5015583;28;20902;-60
2021/12/25 07:16:00;;;;;;;0.55;0.30;;;20.80;34.80;;;;;;5015839;28;20049;-60
2021/12/25 07:18:26;;;;;;;0.52;0.40;;;20.80;35.00;;;;;;5015493;28;20488;-59
2021/12/25 07:20:51;;;;;;;0.35;0.17;;;20.90;35.30;;;;;;5014871;28;20948;-59
2021/12/25 07:23:18;;;;;;;0.45;0.30;;;20.90;35.40;;;;;;5013049;28;27732;-60
2021/12/25 07:25:44;;;;;;;0.60;0.25;;;20.90;35.40;;;;;;5018750;28;20072;-61
2021/12/25 07:28:10;;;;;;;0.25;0.20;;;20.90;35.60;;;;;;5016128;28;20033;-60
2021/12/25 07:30:36;;;;;;;0.30;0.30;;;20.90;35.30;;;;;;5016816;28;20043;-60
2021/12/25 07:33:02;;;;;;;0.57;0.40;;;20.90;35.50;;;;;;5016343;28;20107;-59
2021/12/25 07:35:28;;;;;;;0.28;0.28;;;20.90;35.30;;;;;;5011706;28;27449;-59
2021/12/25 07:37:55;;;;;;;0.40;0.30;;;20.80;35.30;;;;;;5019372;28;20045;-59
2021/12/25 07:40:21;;;;;;;1.02;0.40;;;20.90;35.40;;;;;;5015709;28;20037;-60
2021/12/25 07:42:46;;;;;;;0.40;0.22;;;20.90;35.40;;;;;;5014567;28;20041;-60
2021/12/25 07:45:12;;;;;;;0.52;0.20;;;20.90;35.40;;;;;;5015967;28;20037;-61
2021/12/25 07:47:45;;;;;;;1.65;0.52;;;20.90;35.20;;;;;;5015377;28;20049;-59
2021/12/25 07:50:11;;;;;;;0.85;0.40;;;20.90;35.50;;;;;;5016564;28;25870;-60
2021/12/25 07:52:37;;;;;;;0.65;0.40;;;20.90;35.20;;;;;;5013748;28;20927;-61
2021/12/25 07:55:03;;;;;;;0.20;0.20;;;20.90;35.10;;;;;;5015004;28;20048;-61
2021/12/25 07:57:29;;;;;;;0.70;0.20;;;20.90;35.10;;;;;;5014328;28;20236;-60
2021/12/25 07:59:55;;;;;;;0.50;0.20;;;20.90;35.00;;;;;;5019871;28;20045;-61
2021/12/25 08:02:21;;;;;;;0.47;0.40;;;21.00;34.90;;;;;;5018411;28;20108;-60
2021/12/25 08:04:46;;;;;;;0.38;0.30;;;21.00;34.90;;;;;;5013617;28;20081;-61
2021/12/25 08:07:12;;;;;;;1.55;0.20;;;21.00;34.80;;;;;;5014689;28;20751;-60
2021/12/25 08:09:38;;;;;;;1.38;0.30;;;21.00;34.60;;;;;;5013719;28;20045;-60
2021/12/25 08:12:04;;;;;;;0.20;0.20;;;21.00;34.60;;;;;;5017063;28;20117;-60
2021/12/25 08:14:30;;;;;;;0.45;0.22;;;21.00;34.70;;;;;;5016816;28;20136;-60
2021/12/25 08:16:58;;;;;;;1.35;0.57;;;20.90;34.80;;;;;;5014303;28;20466;-60
2021/12/25 08:19:23;;;;;;;0.43;0.20;;;20.90;35.00;;;;;;5011273;28;26863;-60
2021/12/25 08:21:50;;;;;;;0.35;0.30;;;20.90;35.10;;;;;;5014033;28;20546;-60
2021/12/25 08:24:17;;;;;;;0.47;0.20;;;21.00;35.30;;;;;;5016021;28;20671;-60
2021/12/25 08:26:44;;;;;;;1.15;0.32;;;21.00;35.30;;;;;;5014381;28;20120;-59
2021/12/25 08:29:10;;;;;;;2.25;0.40;;;21.00;35.00;;;;;;5016984;28;20041;-60
2021/12/25 08:31:36;;;;;;;0.20;0.20;;;21.00;35.00;;;;;;5012078;28;27317;-60
2021/12/25 08:34:03;;;;;;;0.70;0.32;;;21.00;35.00;;;;;;5016537;28;20496;-60
2021/12/25 08:36:28;;;;;;;1.00;0.20;;;21.00;34.90;;;;;;5014741;28;20034;-60
2021/12/25 08:38:54;;;;;;;1.67;0.20;;;21.00;34.90;;;;;;5012184;28;20041;-60
2021/12/25 08:41:21;;;;;;;0.32;0.30;;;21.00;34.90;;;;;;5017224;28;20057;-60
2021/12/25 08:43:48;;;;;;;0.28;0.20;;;21.00;34.90;;;;;;5015811;28;20040;-60
2021/12/25 08:46:35;;;;;;;1.40;0.30;;;21.00;34.80;;;;;;5011482;28;25227;-60
2021/12/25 08:49:00;;;;;;;0.38;0.20;;;21.00;34.70;;;;;;5014360;28;20048;-60
2021/12/25 08:51:26;;;;;;;0.50;0.30;;;21.00;34.80;;;;;;5013095;28;20045;-60
2021/12/25 08:53:51;;;;;;;0.45;0.25;;;21.00;34.70;;;;;;5011629;28;20519;-60
2021/12/25 08:56:17;;;;;;;0.45;0.22;;;21.00;34.70;;;;;;5043699;28;20186;-60
2021/12/25 08:58:43;;;;;;;0.22;0.20;;;21.00;34.80;;;;;;5012904;28;20033;-59
2021/12/25 09:01:09;;;;;;;1.77;0.30;;;21.00;34.70;;;;;;5010952;28;20049;-60
2021/12/25 09:03:35;;;;;;;0.30;0.20;;;21.00;34.60;;;;;;5012055;28;20393;-60
2021/12/25 09:06:02;;;;;;;0.70;0.35;;;21.00;34.50;;;;;;5013572;28;20045;-60
2021/12/25 09:08:28;;;;;;;0.60;0.20;;;21.10;34.60;;;;;;5011570;28;20041;-59
2021/12/25 09:10:54;;;;;;;0.65;0.30;;;21.00;34.50;;;;;;5014922;28;20437;-60
2021/12/25 09:13:20;;;;;;;4.03;0.80;;;21.00;34.60;;;;;;5015903;28;20041;-59
2021/12/25 09:15:46;;;;;;;5.20;0.40;;;21.00;34.60;;;;;;5013266;28;27520;-57
2021/12/25 09:18:11;;;;;;;1.95;0.43;;;21.10;34.70;;;;;;5017317;28;20046;-59
2021/12/25 09:20:37;;;;;;;1.02;0.35;;;21.00;34.60;;;;;;5015431;28;20042;-60
2021/12/25 09:23:03;;;;;;;0.45;0.40;;;21.10;34.70;;;;;;5046287;28;20528;-60
2021/12/25 09:25:29;;;;;;;1.05;0.43;;;21.10;34.90;;;;;;5020483;28;20037;-60
2021/12/25 09:27:55;;;;;;;0.98;0.30;;;21.10;34.90;;;;;;5014792;28;20041;-61
2021/12/25 09:30:21;;;;;;;2.15;0.30;;;21.10;35.30;;;;;;5019254;28;20037;-59
2021/12/25 09:32:48;;;;;;;1.50;0.50;;;21.10;35.60;;;;;;5016944;28;20041;-60
2021/12/25 09:35:14;;;;;;;2.25;0.40;;;21.10;35.80;;;;;;5015007;28;20156;-60
2021/12/25 09:37:40;;;;;;;1.08;0.32;;;21.10;35.80;;;;;;5015202;28;20110;-60
2021/12/25 09:40:08;;;;;;;1.15;0.60;;;21.10;35.90;;;;;;5016164;28;20029;-58
2021/12/25 09:42:34;;;;;;;1.40;0.38;;;21.10;36.10;;;;;;5016788;28;25416;-61
2021/12/25 09:45:00;;;;;;;1.05;0.40;;;21.10;36.20;;;;;;5016496;28;20041;-59
2021/12/25 09:47:26;;;;;;;2.65;0.40;;;21.20;36.40;;;;;;5015966;28;20040;-58
2021/12/25 09:49:53;;;;;;;1.92;0.55;;;21.20;36.50;;;;;;5009190;28;20106;-59
2021/12/25 09:52:19;;;;;;;1.42;0.50;;;21.20;36.50;;;;;;5012075;28;20079;-60
2021/12/25 09:54:45;;;;;;;3.40;0.50;;;21.20;36.60;;;;;;5011836;28;20041;-60
2021/12/25 09:57:13;;;;;;;2.55;0.30;;;21.20;36.60;;;;;;5012976;28;27277;-59
2021/12/25 09:59:39;;;;;;;0.95;0.40;;;21.20;36.60;;;;;;5014780;28;20041;-59
2021/12/25 10:02:10;;;;;;;1.27;0.30;;;21.20;36.70;;;;;;5013350;28;20053;-58
2021/12/25 10:04:38;;;;;;;2.67;0.32;;;21.20;36.60;;;;;;5013459;28;20049;-60
2021/12/25 10:07:22;;;;;;;1.30;0.30;;;21.20;36.60;;;;;;5013306;28;20112;-58
2021/12/25 10:10:10;;;;;;;1.25;0.40;;;21.20;36.60;;;;;;5013542;28;20140;-60
2021/12/25 10:13:02;;;;;;;0.45;0.30;;;21.20;36.70;;;;;;5016442;28;20598;-60
2021/12/25 10:15:29;;;;;;;1.40;0.50;;;21.20;36.70;;;;;;5009572;28;20509;-60
2021/12/25 10:17:57;;;;;;;1.77;0.30;;;21.20;36.70;;;;;;5016978;28;20113;-60
2021/12/25 10:20:33;;;;;;;1.13;0.55;;;21.20;36.70;;;;;;5013453;28;20033;-58
2021/12/25 10:23:13;;;;;;;2.85;0.40;;;21.30;36.80;;;;;;5014925;28;20040;-60
2021/12/25 10:25:49;;;;;;;0.90;0.57;;;21.30;36.80;;;;;;5012072;28;20116;-59
2021/12/25 10:28:17;;;;;;;1.58;0.40;;;21.30;36.80;;;;;;5012539;28;20575;-60
2021/12/25 10:30:58;;;;;;;2.50;0.50;;;21.30;36.80;;;;;;5014989;28;20069;-60
2021/12/25 10:33:41;;;;;;;0.73;0.30;;;21.30;36.70;;;;;;5027205;28;20472;-59
2021/12/25 10:36:28;;;;;;;1.75;0.30;;;21.30;36.70;;;;;;5010471;28;20045;-59
2021/12/25 10:39:13;;;;;;;1.40;0.35;;;21.40;37.00;;;;;;5007669;28;20045;-59
2021/12/25 10:41:49;;;;;;;1.33;0.50;;;21.30;36.90;;;;;;5015345;28;20049;-60
2021/12/25 10:44:24;;;;;;;2.50;0.30;;;21.40;36.90;;;;;;5016817;28;20037;-58
2021/12/25 10:46:52;;;;;;;0.68;0.40;;;21.40;37.00;;;;;;5014951;28;20046;-59
2021/12/25 10:49:19;;;;;;;0.82;0.40;;;21.40;37.10;;;;;;5015677;28;20374;-59
2021/12/25 10:51:45;;;;;;;0.57;0.22;;;21.40;37.00;;;;;;5013266;28;20048;-60
2021/12/25 10:54:13;;;;;;;2.05;0.50;;;21.40;37.00;;;;;;5009760;28;25703;-58
2021/12/25 10:56:40;;;;;;;0.80;0.45;;;21.40;36.90;;;;;;5014803;28;20045;-58
2021/12/25 10:59:13;;;;;;;0.43;0.28;;;21.40;36.80;;;;;;5014116;28;20065;-60
2021/12/25 11:01:48;;;;;;;0.47;0.30;;;21.40;36.90;;;;;;5014194;28;20250;-59
2021/12/25 11:04:29;;;;;;;1.35;0.50;;;21.40;36.70;;;;;;5014819;28;20096;-59
2021/12/25 11:06:56;;;;;;;0.95;0.30;;;21.40;36.60;;;;;;5010691;28;27371;-59
2021/12/25 11:09:22;;;;;;;1.98;0.43;;;21.40;36.50;;;;;;5014886;28;20125;-59
2021/12/25 11:12:20;;;;;;;0.90;0.47;;;21.40;36.40;;;;;;5014460;28;20049;-60
2021/12/25 11:14:47;;;;;;;1.52;0.88;;;21.50;36.50;;;;;;5015341;28;20136;-58
2021/12/25 11:17:25;;;;;;;1.52;0.50;;;21.40;36.60;;;;;;5013306;28;20049;-59
2021/12/25 11:20:01;;;;;;;1.08;0.43;;;21.50;36.60;;;;;;5018157;28;20069;-59
2021/12/25 11:22:45;;;;;;;0.50;0.40;;;21.50;36.60;;;;;;5014437;28;27205;-59
2021/12/25 11:25:11;;;;;;;0.95;0.55;;;21.50;36.70;;;;;;5013599;28;20100;-58
2021/12/25 11:27:37;;;;;;;1.05;0.50;;;21.50;36.70;;;;;;5015028;28;20109;-58
2021/12/25 11:30:04;;;;;;;2.83;0.50;;;21.50;36.80;;;;;;5015222;28;20038;-60
2021/12/25 11:32:30;;;;;;;2.53;0.60;;;21.50;36.90;;;;;;5015475;28;20536;-60
2021/12/25 11:34:58;;;;;;;6.13;1.25;;;21.50;36.80;;;;;;5015301;28;20052;-58
2021/12/25 11:37:28;;;;;;;0.50;0.25;;;21.50;37.00;;;;;;5015367;28;20037;-60
2021/12/25 11:39:55;;;;;;;1.48;0.45;;;21.50;37.00;;;;;;5013454;28;20115;-60
2021/12/25 11:42:27;;;;;;;2.20;0.85;;;21.50;37.00;;;;;;5014179;28;20564;-60
2021/12/25 11:44:55;;;;;;;1.15;0.40;;;21.50;37.00;;;;;;5017905;28;20040;-60
2021/12/25 11:47:34;;;;;;;3.88;0.50;;;21.50;36.90;;;;;;5015650;28;20107;-59
2021/12/25 11:50:03;;;;;;;2.55;0.60;;;21.50;37.20;;;;;;5013851;28;21690;-60
2021/12/25 11:52:43;;;;;;;4.55;0.55;;;21.50;37.20;;;;;;5015592;28;20714;-61
2021/12/25 11:58:36;;;;;;;2.50;0.68;;;21.50;37.20;;;;;;5013650;28;20049;-58
2021/12/25 12:01:16;;;;;;;0.90;0.30;;;21.50;37.10;;;;;;5016021;28;20049;-60
2021/12/25 12:03:46;;;;;;;1.08;0.30;;;21.50;37.10;;;;;;5011714;28;27249;-61
2021/12/25 12:06:15;;;;;;;0.40;0.30;;;21.50;37.10;;;;;;5016956;28;20034;-60
2021/12/25 12:08:53;;;;;;;6.05;0.50;;;21.50;37.00;;;;;;5013430;28;20032;-60
2021/12/25 12:11:24;;;;;;;0.85;0.47;;;21.60;37.10;;;;;;5013476;28;20440;-60
2021/12/25 12:14:11;;;;;;;1.05;0.30;;;21.60;37.00;;;;;;5016154;28;20445;-60
2021/12/25 12:16:39;;;;;;;2.67;0.47;;;21.60;37.10;;;;;;5012424;28;20444;-59
2021/12/25 12:19:41;;;;;;;2.22;0.80;;;21.50;37.00;;;;;;5016209;28;20039;-61
2021/12/25 12:22:19;;;;;;;1.02;0.43;;;21.60;37.10;;;;;;5013468;28;20123;-60
2021/12/25 12:27:37;;;;;;;2.63;0.38;;;21.60;37.10;;;;;;5017309;28;20038;-60
2021/12/25 12:30:06;;;;;;;1.80;0.50;;;21.60;37.10;;;;;;5014043;28;20080;-58
2021/12/25 12:32:43;;;;;;;2.22;0.70;;;21.60;37.00;;;;;;5011769;28;20041;-59
2021/12/25 12:35:29;;;;;;;1.63;0.65;;;21.60;36.90;;;;;;5017400;28;20120;-59
2021/12/25 12:38:32;;;;;;;1.40;0.38;;;21.70;37.00;;;;;;5010840;28;20048;-60
2021/12/25 12:41:19;;;;;;;1.13;0.55;;;21.60;37.10;;;;;;5012060;28;20883;-58
2021/12/25 12:44:05;;;;;;;2.70;0.55;;;21.60;37.10;;;;;;5012982;28;20496;-59
2021/12/25 12:46:50;;;;;;;2.75;0.70;;;21.60;37.10;;;;;;5010118;28;28192;-60
2021/12/25 12:49:22;;;;;;;1.65;0.30;;;21.70;37.90;;;;;;5012615;28;20095;-60
2021/12/25 12:52:18;;;;;;;1.48;0.40;;;21.70;37.10;;;;;;5013722;28;20446;-59
2021/12/25 12:54:54;;;;;;;0.85;0.35;;;21.70;37.00;;;;;;5004447;28;20054;-60
2021/12/25 12:57:30;;;;;;;1.80;0.63;;;21.70;37.70;;;;;;5015228;28;20155;-60
2021/12/25 13:00:22;;;;;;;1.75;0.70;;;21.70;37.00;;;;;;5009733;28;27415;-58
2021/12/25 13:02:56;;;;;;;4.80;0.70;;;21.70;36.90;;;;;;5005979;28;20108;-60
2021/12/25 13:05:33;;;;;;;2.22;0.73;;;21.70;37.00;;;;;;5014529;28;20061;-60
2021/12/25 13:08:01;;;;;;;1.77;0.60;;;21.70;37.10;;;;;;5009641;28;20042;-59
2021/12/25 13:10:45;;;;;;;2.00;0.60;;;21.70;37.10;;;;;;5014029;28;20390;-60
2021/12/25 13:13:22;;;;;;;1.35;0.50;;;21.70;37.10;;;;;;5011827;28;25331;-59
2021/12/25 13:15:57;;;;;;;1.10;0.45;;;21.70;37.00;;;;;;5014496;28;20041;-61
2021/12/25 13:18:29;;;;;;;1.20;0.60;;;21.70;36.90;;;;;;5015095;28;20041;-60
2021/12/25 13:20:55;;;;;;;1.02;0.57;;;21.70;36.90;;;;;;5012717;28;20064;-60
2021/12/25 13:23:23;;;;;;;1.25;0.57;;;21.70;36.80;;;;;;5014026;28;20038;-60
2021/12/25 13:25:56;;;;;;;1.13;0.60;;;21.70;36.80;;;;;;5012196;28;20064;-60
2021/12/25 13:28:23;;;;;;;3.10;0.50;;;21.70;36.70;;;;;;5013414;28;20044;-60
2021/12/25 13:30:52;;;;;;;1.10;0.50;;;21.70;36.60;;;;;;5013039;28;20433;-60
2021/12/25 13:33:21;;;;;;;0.70;0.40;;;21.70;36.50;;;;;;5010991;28;20129;-60
2021/12/25 13:35:56;;;;;;;0.80;0.40;;;21.70;36.40;;;;;;5014400;28;20096;-60
2021/12/25 13:38:22;;;;;;;1.90;0.50;;;21.70;36.20;;;;;;5014278;28;20038;-60
2021/12/25 13:40:49;;;;;;;2.50;0.50;;;21.70;36.10;;;;;;5015937;28;20045;-61
2021/12/25 13:43:15;;;;;;;1.67;0.65;;;21.70;36.00;;;;;;5013608;28;20091;-60
2021/12/25 13:45:41;;;;;;;1.45;0.68;;;21.80;36.00;;;;;;5015117;28;20518;-60
2021/12/25 13:48:07;;;;;;;2.03;0.57;;;21.70;36.00;;;;;;5014490;28;20076;-60
2021/12/25 13:50:34;;;;;;;1.15;0.47;;;21.70;35.90;;;;;;5011554;28;20044;-60
2021/12/25 13:52:59;;;;;;;1.30;0.40;;;21.80;35.90;;;;;;5013564;28;20059;-60
2021/12/25 13:55:29;;;;;;;3.10;0.40;;;21.70;35.70;;;;;;5012150;28;23309;-59
2021/12/25 13:58:06;;;;;;;1.90;0.50;;;21.70;35.70;;;;;;5011004;28;20037;-59
2021/12/25 14:00:36;;;;;;;2.03;0.50;;;21.70;35.70;;;;;;5015984;28;20865;-59
2021/12/25 14:03:06;;;;;;;1.52;0.40;;;21.80;35.80;;;;;;5007228;28;20119;-59
2021/12/25 14:05:34;;;;;;;3.17;0.60;;;21.70;35.80;;;;;;5040338;28;20486;-60
2021/12/25 14:08:00;;;;;;;4.30;0.63;;;21.70;35.90;;;;;;5015801;28;20049;-60